Time;durP1;ratioP1;P1;durP2;ratioP2;P2;SDS_P1;SDS_P2;PMS_P1;PMS_P2;Temp;Humidity;BMP_temperature;BMP_pressure;BME280_temperature;BME280_humidity;BME280_pressure;Samples;Min_cycle;Max_cycle;Signal;HPM_P1;HPM_P2
2022/08/18 00:01:08;;;;;;;;;;;;;;;24.02;100.00;153695.38;1757858;81;20488;-76
2022/08/18 00:03:36;;;;;;;;;;;;;;;24.01;100.00;153694.09;1757708;81;20209;-76
2022/08/18 00:06:03;;;;;;;;;;;;;;;24.06;100.00;153705.84;1766903;81;21960;-76
2022/08/18 00:08:30;;;;;;;;;;;;;;;24.11;100.00;153717.64;1773218;81;20153;-76
2022/08/18 00:10:57;;;;;;;;;;;;;;;24.12;100.00;153721.59;1771779;81;20168;-60
2022/08/18 00:13:24;;;;;;;;;;;;;;;24.16;100.00;153730.72;1761034;81;20145;-75
2022/08/18 00:15:51;;;;;;;;;;;;;;;24.17;100.00;153733.34;1761093;81;20463;-60
2022/08/18 00:18:17;;;;;;;;;;;;;;;24.17;100.00;153733.34;1755318;81;21300;-60
2022/08/18 00:20:44;;;;;;;;;;;;;;;24.20;100.00;153739.91;1737763;82;20201;-60
2022/08/18 00:23:12;;;;;;;;;;;;;;;24.25;100.00;153754.33;1738548;82;20128;-76
2022/08/18 00:25:39;;;;;;;;;;;;;;;24.26;100.00;153755.61;1738332;82;20193;-77
2022/08/18 00:28:06;;;;;;;;;;;;;;;24.25;100.00;153754.33;1738181;82;20435;-76
2022/08/18 00:30:33;;;;;;;;;;;;;;;24.23;100.00;153749.09;1738145;82;21067;-60
2022/08/18 00:33:00;;;;;;;;;;;;;;;24.23;100.00;153749.09;1738433;82;20141;-77
2022/08/18 00:35:32;;;;;;;;;;;;;;;24.21;100.00;153743.86;1736294;82;20216;-60
2022/08/18 00:38:00;;;;;;;;;;;;;;;24.14;100.00;153725.50;1732772;82;20806;-60
2022/08/18 00:40:32;;;;;;;;;;;;;;;24.07;100.00;153707.19;1733475;81;20129;-77
2022/08/18 00:43:01;;;;;;;;;;;;;;;24.00;100.00;153691.44;1733551;81;22169;-77
2022/08/18 00:45:31;;;;;;;;;;;;;;;23.98;100.00;153684.88;1733360;82;20303;-75
2022/08/18 00:47:58;;;;;;;;;;;;;;;24.00;100.00;153691.44;1733095;82;20170;-76
2022/08/18 00:50:34;;;;;;;;;;;;;;;24.03;100.00;153699.33;1733002;82;20201;-76
2022/08/18 00:53:19;;;;;;;;;;;;;;;24.06;100.00;153705.84;1714185;82;20131;-75
2022/08/18 00:55:47;;;;;;;;;;;;;;;24.14;100.00;153726.83;1732960;82;21230;-61
2022/08/18 00:58:26;;;;;;;;;;;;;;;24.25;100.00;153754.33;1732905;82;20580;-76
2022/08/18 01:00:53;;;;;;;;;;;;;;;24.36;100.00;153780.50;1732996;82;20186;-59
2022/08/18 01:03:21;;;;;;;;;;;;;;;24.41;100.00;153793.56;1733079;82;20178;-60
2022/08/18 01:06:10;;;;;;;;;;;;;;;24.42;100.00;153797.53;1746412;80;20615;-60
2022/08/18 01:08:39;;;;;;;;;;;;;;;24.38;100.00;153787.06;1752620;82;21196;-60
2022/08/18 01:11:05;;;;;;;;;;;;;;;24.35;100.00;153777.88;1753854;81;20146;-60
2022/08/18 01:13:34;;;;;;;;;;;;;;;24.32;100.00;153772.64;1759713;80;20244;-60
2022/08/18 01:21:49;;;;;;;;;;;;;;;24.33;100.00;153773.97;1759746;81;20171;-60
2022/08/18 01:24:09;;;;;;;;;;;;;;;24.30;100.00;153767.41;1726903;81;20215;-60
2022/08/18 01:26:38;;;;;;;;;;;;;;;24.28;100.00;153762.17;1727529;83;20251;-77
2022/08/18 01:31:54;;;;;;;;;;;;;;;24.30;100.00;153766.08;1626913;88;20528;-77
2022/08/18 01:34:20;;;;;;;;;;;;;;;24.30;100.00;153767.41;1607941;88;21870;-77
2022/08/18 01:36:51;;;;;;;;;;;;;;;24.29;100.00;153764.78;1642209;87;20187;-60
2022/08/18 01:39:17;;;;;;;;;;;;;;;24.28;100.00;153762.17;1635287;87;20188;-77
2022/08/18 01:41:43;;;;;;;;;;;;;;;24.23;100.00;153749.09;1635485;87;20188;-76
2022/08/18 01:44:10;;;;;;;;;;;;;;;24.09;100.00;153712.41;1636212;86;20248;-76
2022/08/18 01:46:38;;;;;;;;;;;;;;;23.97;100.00;153683.53;1636400;87;21262;-77
2022/08/18 01:49:06;;;;;;;;;;;;;;;23.90;100.00;153665.22;1636180;86;20169;-76
2022/08/18 01:51:33;;;;;;;;;;;;;;;23.89;100.00;153662.61;1636029;87;20224;-77
2022/08/18 01:54:00;;;;;;;;;;;;;;;23.81;100.00;153641.69;1636182;86;20136;-76
2022/08/18 01:56:27;;;;;;;;;;;;;;;23.69;100.00;153612.86;1636301;87;20175;-76
2022/08/18 01:58:54;;;;;;;;;;;;;;;23.61;100.00;153591.94;1635950;87;21229;-61
2022/08/18 02:01:22;;;;;;;;;;;;;;;23.53;100.00;153572.28;1635531;87;20279;-77
2022/08/18 02:03:50;;;;;;;;;;;;;;;23.50;100.00;153563.11;1635732;86;20211;-77
2022/08/18 02:06:18;;;;;;;;;;;;;;;23.46;100.00;153555.27;1635741;87;20530;-60
2022/08/18 02:08:45;;;;;;;;;;;;;;;23.44;100.00;153548.75;1635394;87;20650;-77
2022/08/18 02:11:12;;;;;;;;;;;;;;;23.43;100.00;153547.42;1639524;86;21314;-61
2022/08/18 02:13:39;;;;;;;;;;;;;;;23.42;100.00;153544.81;1653388;86;20202;-61
2022/08/18 02:16:06;;;;;;;;;;;;;;;23.46;100.00;153553.98;1653506;86;20150;-60
2022/08/18 02:18:35;;;;;;;;;;;;;;;23.52;100.00;153569.67;1647028;86;20231;-60
2022/08/18 02:21:11;;;;;;;;;;;;;;;23.57;100.00;153582.75;1635120;87;20211;-60
2022/08/18 02:23:38;;;;;;;;;;;;;;;23.61;100.00;153591.94;1635004;87;21050;-60
2022/08/18 02:26:06;;;;;;;;;;;;;;;23.64;100.00;153598.44;1635279;87;20209;-59
2022/08/18 02:29:07;;;;;;;;;;;;;;;23.61;100.00;153591.94;1635157;87;20250;-59
2022/08/18 02:31:34;;;;;;;;;;;;;;;23.62;100.00;153594.55;1647219;87;20444;-72
2022/08/18 02:34:01;;;;;;;;;;;;;;;23.63;100.00;153597.16;1651639;85;20150;-76
2022/08/18 02:36:29;;;;;;;;;;;;;;;23.58;100.00;153584.09;1651628;86;21257;-74
2022/08/18 02:38:56;;;;;;;;;;;;;;;23.57;100.00;153581.47;1651609;86;20181;-74
2022/08/18 02:41:24;;;;;;;;;;;;;;;23.58;100.00;153584.09;1651294;86;20208;-59
2022/08/18 02:43:51;;;;;;;;;;;;;;;23.61;100.00;153593.22;1654325;85;20519;-59
2022/08/18 02:46:18;;;;;;;;;;;;;;;23.66;100.00;153605.02;1668828;86;20272;-60
2022/08/18 02:48:47;;;;;;;;;;;;;;;23.72;100.00;153620.70;1669098;85;21160;-60
2022/08/18 02:51:15;;;;;;;;;;;;;;;23.82;100.00;153644.30;1669352;86;20233;-60
2022/08/18 02:53:43;;;;;;;;;;;;;;;23.88;100.00;153659.98;1669968;84;20452;-75
2022/08/18 02:58:52;;;;;;;;;;;;;;;23.83;100.00;153648.19;1669684;86;20244;-76
2022/08/18 03:01:20;;;;;;;;;;;;;;;23.79;100.00;153636.45;1669775;85;21170;-76
2022/08/18 03:03:48;;;;;;;;;;;;;;;23.79;100.00;153636.45;1669670;85;20543;-61
2022/08/18 03:06:15;;;;;;;;;;;;;;;23.82;100.00;153644.30;1663835;86;20210;-61
2022/08/18 03:08:47;;;;;;;;;;;;;;;23.74;100.00;153625.94;1632277;88;20188;-61
2022/08/18 03:11:11;;;;;;;;;;;;;;;23.73;100.00;153623.31;1661064;84;20171;-60
2022/08/18 03:13:38;;;;;;;;;;;;;;;23.78;100.00;153633.83;1647068;87;21216;-77
2022/08/18 03:16:06;;;;;;;;;;;;;;;23.86;100.00;153654.75;1660378;86;20150;-76
2022/08/18 03:18:33;;;;;;;;;;;;;;;23.92;100.00;153669.17;1658684;86;20185;-76
2022/08/18 03:21:08;;;;;;;;;;;;;;;23.94;100.00;153674.41;1653473;86;20523;-59
2022/08/18 03:23:35;;;;;;;;;;;;;;;23.96;100.00;153680.92;1653117;86;20214;-59
2022/08/18 03:26:02;;;;;;;;;;;;;;;23.93;100.00;153673.08;1653030;86;21299;-59
2022/08/18 03:28:29;;;;;;;;;;;;;;;23.99;100.00;153688.81;1653227;86;20205;-60
2022/08/18 03:30:58;;;;;;;;;;;;;;;23.99;100.00;153688.81;1655246;86;20189;-74
2022/08/18 03:33:25;;;;;;;;;;;;;;;23.97;100.00;153683.53;1660611;86;20624;-75
2022/08/18 03:35:51;;;;;;;;;;;;;;;23.93;100.00;153671.78;1660767;86;20963;-75
2022/08/18 03:38:18;;;;;;;;;;;;;;;23.92;100.00;153669.17;1660189;86;21146;-59
2022/08/18 03:40:53;;;;;;;;;;;;;;;23.99;100.00;153688.81;1659896;86;21308;-60
2022/08/18 03:43:19;;;;;;;;;;;;;;;24.09;100.00;153712.41;1660180;86;20530;-59
2022/08/18 03:45:46;;;;;;;;;;;;;;;24.17;100.00;153733.34;1660141;86;20454;-75
2022/08/18 03:48:13;;;;;;;;;;;;;;;24.23;100.00;153747.75;1660476;86;20433;-75
2022/08/18 03:50:40;;;;;;;;;;;;;;;24.26;100.00;153755.61;1660168;86;21254;-74
2022/08/18 03:53:08;;;;;;;;;;;;;;;24.31;100.00;153770.03;1660468;86;20146;-59
2022/08/18 03:55:35;;;;;;;;;;;;;;;24.39;100.00;153788.34;1660641;86;20197;-75
2022/08/18 03:58:02;;;;;;;;;;;;;;;24.49;99.68;153814.56;1660683;86;20682;-74
2022/08/18 04:00:30;;;;;;;;;;;;;;;24.58;99.15;153838.11;1660534;86;20233;-74
2022/08/18 04:02:58;;;;;;;;;;;;;;;24.72;98.46;153872.19;1660535;86;21138;-74
2022/08/18 04:05:25;;;;;;;;;;;;;;;24.84;97.65;153903.64;1657253;86;20241;-75
2022/08/18 04:07:53;;;;;;;;;;;;;;;24.94;96.70;153927.25;1649706;86;20185;-60
2022/08/18 04:10:20;;;;;;;;;;;;;;;25.05;96.05;153956.03;1649542;86;20427;-60
2022/08/18 04:12:47;;;;;;;;;;;;;;;25.17;95.33;153987.50;1635352;87;20213;-61
2022/08/18 04:15:15;;;;;;;;;;;;;;;25.31;94.39;154021.53;1633282;87;20173;-59
2022/08/18 04:17:44;;;;;;;;;;;;;;;25.41;93.22;154047.77;1633199;87;20205;-60
2022/08/18 04:20:11;;;;;;;;;;;;;;;25.42;92.01;154050.39;1607488;89;20092;-75
2022/08/18 04:22:38;;;;;;;;;;;;;;;25.41;91.36;154047.77;1607697;89;20478;-76
2022/08/18 04:25:08;;;;;;;;;;;;;;;25.39;91.15;154041.20;1607563;89;20161;-75
2022/08/18 04:27:35;;;;;;;;;;;;;;;25.38;90.87;154039.91;1607468;89;21241;-76
2022/08/18 04:30:02;;;;;;;;;;;;;;;25.37;90.73;154037.30;1607267;89;20513;-61
2022/08/18 04:32:29;;;;;;;;;;;;;;;25.35;90.00;154032.06;1606890;89;20440;-61
2022/08/18 04:34:57;;;;;;;;;;;;;;;25.31;89.59;154021.53;1606323;89;21502;-60
2022/08/18 04:37:24;;;;;;;;;;;;;;;25.28;89.52;154013.69;1606509;89;20192;-61
2022/08/18 04:39:50;;;;;;;;;;;;;;;25.25;89.19;154005.83;1606110;89;22062;-60
2022/08/18 04:42:17;;;;;;;;;;;;;;;25.24;89.12;154004.55;1605922;89;20204;-60
2022/08/18 04:44:45;;;;;;;;;;;;;;;25.26;89.03;154009.78;1606247;89;20187;-61
2022/08/18 04:47:12;;;;;;;;;;;;;;;25.29;88.43;154016.30;1606763;89;20133;-61
2022/08/18 04:49:39;;;;;;;;;;;;;;;25.30;88.34;154018.92;1606606;89;20929;-75
2022/08/18 04:54:51;;;;;;;;;;;;;;;25.43;87.69;154053.00;1606015;89;20211;-76
2022/08/18 04:57:18;;;;;;;;;;;;;;;25.56;87.13;154084.53;1606346;89;20203;-75
2022/08/18 04:59:46;;;;;;;;;;;;;;;25.66;86.47;154110.70;1606134;89;20188;-74
2022/08/18 05:02:13;;;;;;;;;;;;;;;25.81;85.78;154147.42;1606446;89;20445;-61
2022/08/18 05:04:41;;;;;;;;;;;;;;;25.94;84.97;154181.47;1606807;86;21099;-60
2022/08/18 05:07:09;;;;;;;;;;;;;;;26.09;84.29;154218.19;1654718;86;20087;-60
2022/08/18 05:09:38;;;;;;;;;;;;;;;26.22;83.85;154252.34;1655069;86;20216;-60
2022/08/18 05:12:05;;;;;;;;;;;;;;;26.39;82.90;154295.59;1641533;86;20203;-60
2022/08/18 05:14:32;;;;;;;;;;;;;;;26.58;82.30;154344.08;1632120;87;20484;-76
2022/08/18 05:17:00;;;;;;;;;;;;;;;26.80;81.26;154397.88;1632843;86;21868;-76
2022/08/18 05:19:26;;;;;;;;;;;;;;;26.98;79.88;154445.14;1643903;87;20491;-76
2022/08/18 05:21:54;;;;;;;;;;;;;;;27.09;78.66;154471.34;1648430;87;20205;-62
2022/08/18 05:24:20;;;;;;;;;;;;;;;27.14;77.89;154485.78;1648372;87;20186;-60
2022/08/18 05:26:47;;;;;;;;;;;;;;;27.24;77.37;154509.38;1647822;87;20178;-60
2022/08/18 05:29:15;;;;;;;;;;;;;;;27.38;76.75;154546.11;1648327;87;21264;-60
2022/08/18 05:31:42;;;;;;;;;;;;;;;27.53;75.59;154582.91;1629076;87;20178;-60
2022/08/18 05:34:09;;;;;;;;;;;;;;;27.61;75.23;154603.88;1648091;86;20182;-60
2022/08/18 05:36:45;;;;;;;;;;;;;;;27.72;74.63;154631.44;1647728;87;20209;-60
2022/08/18 05:39:14;;;;;;;;;;;;;;;27.82;74.06;154656.36;1648570;86;20167;-60
2022/08/18 05:41:51;;;;;;;;;;;;;;;27.86;73.63;154666.84;1633640;87;21137;-79
2022/08/18 05:44:21;;;;;;;;;;;;;;;28.00;73.46;154703.61;1648478;87;20162;-77
2022/08/18 05:46:55;;;;;;;;;;;;;;;28.18;72.91;154748.23;1648400;87;20186;-78
2022/08/18 05:49:19;;;;;;;;;;;;;;;28.33;72.15;154785.00;1647628;87;20222;-60
2022/08/18 05:51:49;;;;;;;;;;;;;;;28.45;71.59;154816.52;1647995;87;20173;-78
2022/08/18 05:57:04;;;;;;;;;;;;;;;28.67;70.94;154872.94;1648039;86;20466;-60
2022/08/18 05:59:33;;;;;;;;;;;;;;;28.83;70.61;154913.66;1631359;86;20520;-78
2022/08/18 06:02:09;;;;;;;;;;;;;;;28.99;70.18;154953.06;1633029;86;20273;-77
2022/08/18 06:04:40;;;;;;;;;;;;;;;29.20;69.94;155005.59;1629620;86;20487;-78
2022/08/18 06:07:09;;;;;;;;;;;;;;;29.50;68.94;155083.13;1630274;88;21164;-78
2022/08/18 06:09:43;;;;;;;;;;;;;;;29.73;67.94;155142.25;1627577;87;20208;-78
2022/08/18 06:12:25;;;;;;;;;;;;;;;29.92;66.67;155188.19;1633849;87;20203;-78
2022/08/18 06:14:52;;;;;;;;;;;;;;;30.06;65.92;155225.00;1631642;88;20223;-59
2022/08/18 06:17:31;;;;;;;;;;;;;;;30.25;64.99;155272.30;1631929;88;20504;-60
2022/08/18 06:20:24;;;;;;;;;;;;;;;30.41;64.03;155313.06;1636835;86;21257;-60
2022/08/18 06:23:24;;;;;;;;;;;;;;;30.50;63.03;155335.34;1590286;89;20237;-59
2022/08/18 06:26:15;;;;;;;;;;;;;;;30.59;63.10;155360.31;1603401;89;20241;-60
2022/08/18 06:28:50;;;;;;;;;;;;;;;30.75;62.95;155399.81;1640958;86;20194;-60
2022/08/18 06:31:40;;;;;;;;;;;;;;;30.91;62.11;155439.25;1645157;86;20922;-61
2022/08/18 06:34:20;;;;;;;;;;;;;;;31.05;61.73;155474.72;1603466;86;21274;-61
2022/08/18 06:36:52;;;;;;;;;;;;;;;31.15;61.03;155502.33;1607557;87;20142;-61
2022/08/18 06:39:44;;;;;;;;;;;;;;;31.28;59.95;155535.23;1615554;87;20215;-61
2022/08/18 06:42:11;;;;;;;;;;;;;;;31.30;59.74;155539.19;1637996;86;20142;-61
2022/08/18 06:44:49;;;;;;;;;;;;;;;31.30;59.47;155539.19;1634159;86;20214;-61
2022/08/18 06:47:19;;;;;;;;;;;;;;;31.28;59.14;155533.89;1631829;86;21291;-78
2022/08/18 06:49:53;;;;;;;;;;;;;;;31.33;58.81;155547.08;1612981;86;20189;-61
2022/08/18 06:52:38;;;;;;;;;;;;;;;31.32;58.70;155544.45;1636724;86;20217;-59
2022/08/18 06:55:08;;;;;;;;;;;;;;;31.44;58.96;155574.67;1606136;88;20222;-62
2022/08/18 06:57:37;;;;;;;;;;;;;;;31.70;58.05;155641.69;1640547;86;20219;-59
2022/08/18 07:00:10;;;;;;;;;;;;;;;31.83;57.43;155674.66;1632244;86;21866;-76
2022/08/18 07:02:43;;;;;;;;;;;;;;;31.87;56.96;155683.83;1642269;85;20195;-76
2022/08/18 07:05:19;;;;;;;;;;;;;;;31.88;56.70;155685.16;1635740;86;20413;-76
2022/08/18 07:07:48;;;;;;;;;;;;;;;31.82;56.95;155670.69;1634419;87;20222;-76
2022/08/18 07:10:18;;;;;;;;;;;;;;;31.88;56.68;155686.45;1609824;87;20215;-77
2022/08/18 07:12:45;;;;;;;;;;;;;;;31.86;56.86;155682.53;1647911;85;21937;-76
2022/08/18 07:15:12;;;;;;;;;;;;;;;31.96;56.78;155707.53;1643594;86;20149;-75
2022/08/18 07:17:39;;;;;;;;;;;;;;;32.06;56.43;155732.52;1644613;86;20210;-75
2022/08/18 07:20:09;;;;;;;;;;;;;;;32.10;56.21;155743.03;1608769;88;20143;-74
2022/08/18 07:22:57;;;;;;;;;;;;;;;32.15;55.70;155756.16;1635098;86;20202;-74
2022/08/18 07:25:38;;;;;;;;;;;;;;;32.14;55.44;155753.53;1636940;86;21161;-75
2022/08/18 07:28:05;;;;;;;;;;;;;;;32.19;55.60;155765.37;1632647;86;20205;-60
2022/08/18 07:30:36;;;;;;;;;;;;;;;32.37;54.76;155810.11;1622482;86;20256;-60
2022/08/18 07:33:18;;;;;;;;;;;;;;;32.39;54.81;155816.69;1634325;85;20198;-61
2022/08/18 07:35:57;;;;;;;;;;;;;;;32.39;54.21;155816.69;1631590;87;20237;-60
2022/08/18 07:38:27;;;;;;;;;;;;;;;32.40;53.22;155819.33;1629036;88;21226;-75
2022/08/18 07:41:03;;;;;;;;;;;;;;;32.41;53.26;155820.66;1628442;88;20177;-74
2022/08/18 07:43:58;;;;;;;;;;;;;;;32.35;52.66;155804.84;1628742;88;20214;-60
2022/08/18 07:46:29;;;;;;;;;;;;;;;32.14;53.44;155752.19;1630003;88;20194;-73
2022/08/18 07:48:58;;;;;;;;;;;;;;;31.80;55.51;155665.44;1630955;88;20189;-60
2022/08/18 07:51:47;;;;;;;;;;;;;;;31.65;57.18;155628.56;1628102;88;21258;-60
2022/08/18 07:54:24;;;;;;;;;;;;;;;31.73;57.51;155649.63;1626111;87;20170;-60
2022/08/18 07:57:09;;;;;;;;;;;;;;;31.85;57.29;155678.56;1628656;87;20172;-74
2022/08/18 07:59:56;;;;;;;;;;;;;;;31.85;57.26;155678.56;1629661;88;20520;-59
2022/08/18 08:02:33;;;;;;;;;;;;;;;31.95;57.06;155704.89;1630478;87;20491;-61
2022/08/18 08:05:21;;;;;;;;;;;;;;;31.95;56.67;155703.56;1627784;86;21146;-60
2022/08/18 08:07:57;;;;;;;;;;;;;;;31.89;56.84;155689.08;1626567;87;20204;-60
2022/08/18 08:10:37;;;;;;;;;;;;;;;31.88;56.93;155685.16;1595698;88;20673;-60
2022/08/18 08:13:22;;;;;;;;;;;;;;;32.04;56.68;155727.20;1628942;87;20497;-61
2022/08/18 08:15:56;;;;;;;;;;;;;;;32.17;56.43;155758.78;1628338;87;20195;-74
2022/08/18 08:18:47;;;;;;;;;;;;;;;32.21;55.80;155769.30;1628221;88;21865;-74
2022/08/18 08:21:21;;;;;;;;;;;;;;;32.14;55.75;155752.19;1628175;88;20485;-60
2022/08/18 08:23:59;;;;;;;;;;;;;;;32.05;55.98;155728.53;1629735;88;20207;-60
2022/08/18 08:26:35;;;;;;;;;;;;;;;31.92;56.51;155696.97;1625395;87;20185;-72
2022/08/18 08:29:17;;;;;;;;;;;;;;;31.96;56.45;155707.53;1624400;87;20197;-59
2022/08/18 08:31:56;;;;;;;;;;;;;;;32.03;56.30;155724.58;1629241;88;21748;-60
2022/08/18 08:34:41;;;;;;;;;;;;;;;32.15;55.83;155756.16;1627779;88;20460;-60
2022/08/18 08:37:11;;;;;;;;;;;;;;;32.27;55.52;155786.41;1637444;87;20205;-72
2022/08/18 08:39:50;;;;;;;;;;;;;;;32.32;55.15;155796.92;1634692;87;20494;-73
2022/08/18 08:42:30;;;;;;;;;;;;;;;32.36;54.99;155807.47;1635672;87;20226;-73
2022/08/18 08:44:59;;;;;;;;;;;;;;;32.40;54.86;155819.33;1634372;87;21122;-72
2022/08/18 08:47:51;;;;;;;;;;;;;;;32.29;54.94;155790.38;1635689;87;20222;-72
2022/08/18 08:50:22;;;;;;;;;;;;;;;32.08;55.42;155736.42;1632346;87;20235;-71
2022/08/18 08:52:52;;;;;;;;;;;;;;;31.84;56.31;155675.94;1632271;87;20183;-72
2022/08/18 08:55:30;;;;;;;;;;;;;;;31.85;56.96;155678.56;1634072;87;20492;-72
2022/08/18 08:58:16;;;;;;;;;;;;;;;31.97;56.81;155710.16;1636730;87;21147;-72
2022/08/18 09:00:43;;;;;;;;;;;;;;;32.15;56.63;155756.16;1634166;87;20268;-73
2022/08/18 09:03:32;;;;;;;;;;;;;;;32.36;56.16;155808.81;1637004;87;20171;-73
2022/08/18 09:06:11;;;;;;;;;;;;;;;32.55;55.58;155857.45;1637917;86;20205;-72
2022/08/18 09:08:44;;;;;;;;;;;;;;;32.63;55.21;155877.20;1565665;90;20610;-72
2022/08/18 09:11:25;;;;;;;;;;;;;;;32.69;55.15;155891.67;1635795;87;21262;-72
2022/08/18 09:14:08;;;;;;;;;;;;;;;32.68;54.95;155889.05;1631366;87;20195;-71
2022/08/18 09:16:53;;;;;;;;;;;;;;;32.65;55.10;155881.16;1631454;87;20283;-72
2022/08/18 09:19:40;;;;;;;;;;;;;;;32.65;55.28;155881.16;1632687;86;20879;-71
2022/08/18 09:22:16;;;;;;;;;;;;;;;32.65;53.18;155881.16;1635361;87;20226;-61
2022/08/18 09:24:48;;;;;;;;;;;;;;;32.42;51.37;155823.30;1635774;87;21854;-61
2022/08/18 09:27:40;;;;;;;;;;;;;;;32.24;49.41;155777.19;1631947;87;21120;-61
2022/08/18 09:30:08;;;;;;;;;;;;;;;32.08;47.79;155736.42;1636253;87;20127;-61
2022/08/18 09:32:44;;;;;;;;;;;;;;;31.76;47.56;155656.16;1634775;87;20199;-61
2022/08/18 09:35:18;;;;;;;;;;;;;;;31.46;50.24;155578.59;1616093;87;20166;-61
2022/08/18 09:41:30;;;;;;;;;;;;;;;31.21;51.42;155515.50;1598642;87;21320;-60
2022/08/18 09:43:33;;;;;;;;;;;;;;;30.78;53.98;155407.69;1605538;87;20207;-72
2022/08/18 09:46:03;;;;;;;;;;;;;;;30.55;53.88;155348.53;1610768;88;20508;-72
2022/08/18 09:48:34;;;;;;;;;;;;;;;30.25;54.90;155272.30;1607475;88;20194;-72
2022/08/18 09:51:14;;;;;;;;;;;;;;;29.94;55.40;155194.73;1598898;87;22088;-72
2022/08/18 09:53:53;;;;;;;;;;;;;;;29.55;55.57;155094.95;1610127;87;20211;-73
2022/08/18 09:56:44;;;;;;;;;;;;;;;29.15;56.91;154995.09;1605181;88;20221;-72
2022/08/18 09:59:11;;;;;;;;;;;;;;;28.71;57.73;154882.14;1588875;88;20190;-73
2022/08/18 10:01:39;;;;;;;;;;;;;;;28.30;59.92;154779.75;1610597;87;20245;-73
2022/08/18 10:04:18;;;;;;;;;;;;;;;28.10;61.01;154727.20;1583258;88;21283;-73
2022/08/18 10:06:46;;;;;;;;;;;;;;;27.92;60.96;154681.30;1608742;87;20487;-73
2022/08/18 10:09:33;;;;;;;;;;;;;;;27.91;62.44;154678.67;1603236;87;20199;-74
2022/08/18 10:12:32;;;;;;;;;;;;;;;28.03;62.36;154710.14;1616166;87;20176;-74
2022/08/18 10:15:09;;;;;;;;;;;;;;;28.20;62.84;154752.19;1605098;88;20685;-73
2022/08/18 10:17:55;;;;;;;;;;;;;;;28.33;62.97;154785.00;1602960;88;21156;-73
2022/08/18 10:20:48;;;;;;;;;;;;;;;28.36;62.00;154792.88;1609799;88;20194;-74
2022/08/18 10:23:44;;;;;;;;;;;;;;;28.42;61.55;154808.66;1612599;87;20161;-73
2022/08/18 10:26:34;;;;;;;;;;;;;;;28.43;61.31;154811.28;1602574;87;20182;-73
2022/08/18 10:29:05;;;;;;;;;;;;;;;28.31;59.31;154782.37;1605209;87;20223;-73
2022/08/18 10:32:01;;;;;;;;;;;;;;;28.24;58.09;154764.02;1582495;89;21326;-73
2022/08/18 10:34:40;;;;;;;;;;;;;;;28.23;58.32;154761.39;1602097;88;20517;-73
2022/08/18 10:37:35;;;;;;;;;;;;;;;28.15;57.85;154741.70;1626372;86;20156;-73
2022/08/18 10:40:06;;;;;;;;;;;;;;;28.12;59.10;154732.45;1620375;86;20217;-72
2022/08/18 10:42:34;;;;;;;;;;;;;;;28.12;60.63;154733.78;1640389;86;20399;-73
2022/08/18 10:45:11;;;;;;;;;;;;;;;28.21;61.69;154756.16;1639747;86;21250;-74
2022/08/18 10:47:40;;;;;;;;;;;;;;;28.35;60.92;154790.25;1630639;87;20230;-73
2022/08/18 10:50:18;;;;;;;;;;;;;;;28.41;60.40;154806.03;1645620;86;20182;-73
2022/08/18 10:53:11;;;;;;;;;;;;;;;28.45;59.92;154816.52;1642035;87;20142;-73
2022/08/18 10:55:48;;;;;;;;;;;;;;;28.54;60.71;154840.13;1622040;86;20203;-73
2022/08/18 10:58:39;;;;;;;;;;;;;;;28.70;61.40;154879.52;1603237;86;22254;-73
2022/08/18 11:01:26;;;;;;;;;;;;;;;28.91;61.40;154932.08;1607358;87;20194;-74
2022/08/18 11:03:59;;;;;;;;;;;;;;;29.20;61.36;155005.59;1636247;85;20189;-72
2022/08/18 11:06:25;;;;;;;;;;;;;;;29.52;61.28;155087.08;1608471;87;20508;-73
2022/08/18 11:08:55;;;;;;;;;;;;;;;29.89;59.83;155181.61;1638117;86;20210;-62
2022/08/18 11:11:23;;;;;;;;;;;;;;;30.12;59.44;155239.45;1605106;87;21836;-62
2022/08/18 11:13:54;;;;;;;;;;;;;;;30.39;59.15;155307.75;1636208;87;20183;-61
2022/08/18 11:16:28;;;;;;;;;;;;;;;30.62;59.08;155365.63;1637953;87;20420;-62
2022/08/18 11:18:57;;;;;;;;;;;;;;;30.78;57.16;155407.69;1638775;86;20224;-61
2022/08/18 11:21:37;;;;;;;;;;;;;;;30.94;56.33;155447.13;1638068;86;20175;-61
2022/08/18 11:24:12;;;;;;;;;;;;;;;31.00;55.50;155462.88;1637125;86;21225;-61
2022/08/18 11:26:41;;;;;;;;;;;;;;;31.03;55.74;155469.47;1648701;86;20193;-61
2022/08/18 11:29:23;;;;;;;;;;;;;;;31.07;56.36;155479.97;1637067;86;20197;-61
2022/08/18 11:31:53;;;;;;;;;;;;;;;31.08;57.51;155483.94;1638734;86;20188;-61
2022/08/18 11:34:24;;;;;;;;;;;;;;;31.23;57.55;155520.75;1637041;86;20183;-62
2022/08/18 11:37:02;;;;;;;;;;;;;;;31.38;57.01;155560.20;1638672;86;21149;-62
2022/08/18 11:39:29;;;;;;;;;;;;;;;31.59;55.81;155612.80;1604541;88;20800;-62
2022/08/18 11:41:57;;;;;;;;;;;;;;;31.82;55.16;155670.69;1605945;88;20218;-62
2022/08/18 11:44:25;;;;;;;;;;;;;;;31.98;54.66;155712.78;1606759;87;20230;-61
2022/08/18 11:46:56;;;;;;;;;;;;;;;32.10;53.72;155741.69;1634700;86;20219;-73
2022/08/18 11:49:29;;;;;;;;;;;;;;;32.18;53.18;155762.75;1638427;86;21898;-72
2022/08/18 11:52:16;;;;;;;;;;;;;;;32.15;52.73;155754.81;1633805;86;20219;-70
2022/08/18 11:54:46;;;;;;;;;;;;;;;32.11;53.01;155744.31;1633673;86;20215;-60
2022/08/18 11:57:40;;;;;;;;;;;;;;;32.19;52.43;155764.03;1633573;86;20081;-72
2022/08/18 12:00:46;;;;;;;;;;;;;;;32.32;52.33;155796.92;1606513;87;20546;-73
2022/08/18 12:03:39;;;;;;;;;;;;;;;32.39;52.63;155815.41;1609723;88;21268;-73
2022/08/18 12:06:14;;;;;;;;;;;;;;;32.47;52.87;155836.44;1611449;87;20182;-62
2022/08/18 12:08:50;;;;;;;;;;;;;;;32.51;51.63;155846.94;1632085;86;20167;-70
2022/08/18 12:11:23;;;;;;;;;;;;;;;32.50;50.98;155844.31;1610731;87;20503;-61
2022/08/18 12:13:59;;;;;;;;;;;;;;;32.51;50.32;155845.66;1640907;86;20515;-61
2022/08/18 12:16:40;;;;;;;;;;;;;;;32.48;48.77;155839.06;1634425;86;21187;-60
2022/08/18 12:19:08;;;;;;;;;;;;;;;32.41;47.88;155820.66;1612297;88;20222;-61
2022/08/18 12:21:39;;;;;;;;;;;;;;;32.36;47.87;155807.47;1609988;88;20628;-71
2022/08/18 12:24:08;;;;;;;;;;;;;;;32.35;48.08;155804.84;1633076;87;20527;-61
2022/08/18 12:26:35;;;;;;;;;;;;;;;32.44;48.22;155828.55;1635176;87;20171;-72
2022/08/18 12:29:01;;;;;;;;;;;;;;;32.53;47.84;155852.20;1631202;87;21248;-61
2022/08/18 12:31:28;;;;;;;;;;;;;;;32.55;47.96;155857.45;1637614;86;20427;-61
2022/08/18 12:33:55;;;;;;;;;;;;;;;32.52;48.39;155849.58;1636253;86;20251;-62
2022/08/18 12:36:22;;;;;;;;;;;;;;;32.58;49.21;155864.06;1636683;86;20198;-71
2022/08/18 12:38:48;;;;;;;;;;;;;;;32.65;49.97;155881.16;1597076;88;20207;-71
2022/08/18 12:41:15;;;;;;;;;;;;;;;32.65;50.25;155881.16;1623428;87;21232;-71
2022/08/18 12:43:42;;;;;;;;;;;;;;;32.56;50.61;155860.09;1596329;89;20298;-70
2022/08/18 12:46:08;;;;;;;;;;;;;;;32.46;51.21;155833.81;1615927;87;20177;-60
2022/08/18 12:48:36;;;;;;;;;;;;;;;32.32;51.83;155796.92;1600563;88;20260;-60
2022/08/18 12:51:03;;;;;;;;;;;;;;;32.25;52.38;155781.16;1597323;88;20199;-61
2022/08/18 12:53:30;;;;;;;;;;;;;;;32.25;52.43;155781.16;1601816;88;21151;-72
2022/08/18 12:55:56;;;;;;;;;;;;;;;32.29;52.62;155791.66;1602389;88;20711;-72
2022/08/18 12:58:23;;;;;;;;;;;;;;;32.34;53.03;155802.22;1599610;88;20188;-72
2022/08/18 13:00:50;;;;;;;;;;;;;;;32.39;53.17;155815.41;1599198;89;20204;-62
2022/08/18 13:03:18;;;;;;;;;;;;;;;32.40;53.29;155818.03;1596566;89;20232;-71
2022/08/18 13:05:45;;;;;;;;;;;;;;;32.32;53.35;155796.92;1600237;89;21870;-63
2022/08/18 13:08:19;;;;;;;;;;;;;;;32.26;53.13;155783.78;1595653;88;20253;-71
2022/08/18 13:10:46;;;;;;;;;;;;;;;32.14;52.90;155752.19;1594052;89;20407;-71
2022/08/18 13:13:15;;;;;;;;;;;;;;;31.92;54.12;155696.97;1613103;87;20193;-71
2022/08/18 13:15:42;;;;;;;;;;;;;;;31.53;55.72;155598.31;1592047;89;20236;-72
2022/08/18 13:18:08;;;;;;;;;;;;;;;31.05;57.06;155474.72;1621053;87;21321;-73
2022/08/18 13:20:35;;;;;;;;;;;;;;;30.89;58.20;155434.00;1621582;88;20242;-73